Time;durP1;ratioP1;P1;durP2;ratioP2;P2;SDS_P1;SDS_P2;PMS_P1;PMS_P2;Temp;Humidity;BMP_temperature;BMP_pressure;BME280_temperature;BME280_humidity;BME280_pressure;Samples;Min_cycle;Max_cycle;Signal;HPM_P1;HPM_P2
2021/06/11 00:02:15;;;;;;;20.48;15.30;;;;;;;16.44;72.62;100645.66;5063642;28;20028;-65
2021/06/11 00:04:40;;;;;;;18.58;16.00;;;;;;;16.43;72.73;100646.56;5045775;28;20056;-65
2021/06/11 00:07:06;;;;;;;20.85;16.33;;;;;;;16.42;72.77;100643.09;5063678;28;20025;-66
2021/06/11 00:09:31;;;;;;;20.42;16.25;;;;;;;16.39;73.08;100643.19;5063534;28;20037;-65
2021/06/11 00:11:56;;;;;;;21.00;16.13;;;;;;;16.34;73.22;100634.63;5062746;28;20466;-65
2021/06/11 00:14:22;;;;;;;27.50;16.65;;;;;;;16.28;73.23;100619.91;5063534;28;20130;-65
2021/06/11 00:16:47;;;;;;;19.55;16.35;;;;;;;16.39;73.77;100632.69;5063551;28;20032;-65
2021/06/11 00:19:13;;;;;;;19.60;15.48;;;;;;;16.30;73.88;100619.88;5063363;28;20021;-65
2021/06/11 00:21:38;;;;;;;22.60;18.02;;;;;;;16.42;74.15;100629.97;5063505;28;20052;-64
2021/06/11 00:24:05;;;;;;;24.88;17.50;;;;;;;16.44;74.23;100627.31;5063177;28;20029;-65
2021/06/11 00:26:30;;;;;;;18.00;15.07;;;;;;;16.53;74.08;100632.31;5045516;28;20028;-64
2021/06/11 00:28:55;;;;;;;18.77;14.85;;;;;;;16.59;73.52;100626.00;5063413;28;20032;-64
2021/06/11 00:31:21;;;;;;;16.77;15.00;;;;;;;16.58;73.70;100614.66;5063309;28;20025;-65
2021/06/11 00:33:46;;;;;;;21.30;18.35;;;;;;;16.67;73.46;100623.16;5063353;28;20039;-65
2021/06/11 00:36:12;;;;;;;23.20;17.75;;;;;;;16.65;73.38;100622.34;5063266;28;20090;-65
2021/06/11 00:38:37;;;;;;;21.30;16.52;;;;;;;16.61;73.46;100616.34;5063213;28;20425;-65
2021/06/11 00:41:02;;;;;;;22.15;18.30;;;;;;;16.56;73.41;100615.63;5063170;28;20029;-64
2021/06/11 00:43:28;;;;;;;23.73;17.80;;;;;;;16.53;73.59;100619.22;5063022;28;20075;-65
2021/06/11 00:45:53;;;;;;;19.95;16.30;;;;;;;16.54;73.79;100612.19;5063101;28;20025;-64
2021/06/11 00:48:19;;;;;;;18.27;15.85;;;;;;;16.50;73.84;100614.06;5063100;28;20063;-64
2021/06/11 00:50:44;;;;;;;19.67;15.07;;;;;;;16.53;73.64;100613.09;5063106;28;20031;-64
2021/06/11 00:53:10;;;;;;;18.88;15.35;;;;;;;16.53;73.54;100615.72;5062936;28;20048;-64
2021/06/11 00:55:36;;;;;;;19.88;15.27;;;;;;;16.55;73.88;100601.66;5062992;28;20370;-64
2021/06/11 00:58:02;;;;;;;17.88;14.68;;;;;;;16.57;73.70;100605.09;5045013;28;20056;-64
2021/06/11 01:00:27;;;;;;;18.80;13.60;;;;;;;16.58;73.45;100606.81;5063031;28;20473;-63
2021/06/11 01:02:53;;;;;;;21.10;14.18;;;;;;;16.55;73.49;100604.28;5062891;28;20022;-64
2021/06/11 01:05:19;;;;;;;17.50;14.07;;;;;;;16.63;73.30;100611.06;5062839;28;20025;-64
2021/06/11 01:07:48;;;;;;;16.50;13.32;;;;;;;16.63;73.38;100605.81;5062851;28;20025;-64
2021/06/11 01:10:15;;;;;;;17.35;13.23;;;;;;;16.61;73.27;100605.88;5062947;28;20029;-65
2021/06/11 01:12:41;;;;;;;18.02;14.05;;;;;;;16.60;73.21;100607.63;5063072;28;20025;-65
2021/06/11 01:15:07;;;;;;;17.13;14.35;;;;;;;16.58;73.45;100596.31;5045027;28;20021;-64
2021/06/11 01:17:36;;;;;;;18.48;14.88;;;;;;;16.59;73.52;100607.66;5062897;28;20025;-64
2021/06/11 01:20:08;;;;;;;18.98;15.15;;;;;;;16.60;73.67;100605.00;5062883;28;20025;-65
2021/06/11 01:22:46;;;;;;;18.92;15.15;;;;;;;16.59;73.69;100600.69;5062862;28;20109;-66
2021/06/11 01:25:17;;;;;;;18.70;13.85;;;;;;;16.55;73.95;100596.41;5066640;28;20021;-64
2021/06/11 01:27:46;;;;;;;14.82;12.98;;;;;;;16.48;73.79;100603.59;5049018;28;20021;-64
2021/06/11 01:30:17;;;;;;;15.20;11.98;;;;;;;16.43;74.02;100604.66;5066846;28;20036;-64
2021/06/11 01:32:44;;;;;;;14.80;12.00;;;;;;;16.44;74.15;100608.97;5049024;28;20020;-66
2021/06/11 01:35:18;;;;;;;17.85;11.27;;;;;;;16.40;73.91;100599.50;5066355;28;20055;-65
2021/06/11 01:37:47;;;;;;;14.93;10.40;;;;;;;16.42;73.81;100602.94;5065083;28;20386;-65
2021/06/11 01:40:13;;;;;;;14.68;10.57;;;;;;;16.38;73.92;100593.44;5066219;28;20448;-65
2021/06/11 01:42:45;;;;;;;15.55;10.68;;;;;;;16.35;74.02;100597.91;5066186;28;20475;-65
2021/06/11 01:45:12;;;;;;;16.30;11.43;;;;;;;16.29;74.11;100592.84;5048199;28;20031;-65
2021/06/11 01:47:42;;;;;;;15.05;10.70;;;;;;;16.29;74.30;100592.84;5066274;28;20060;-65
2021/06/11 01:50:10;;;;;;;13.65;8.90;;;;;;;16.23;74.14;100583.38;5066105;28;20028;-64
2021/06/11 01:52:37;;;;;;;11.90;9.07;;;;;;;16.19;74.16;100578.28;5066206;28;20059;-64
2021/06/11 01:55:04;;;;;;;12.48;9.48;;;;;;;16.21;74.55;100585.19;5065998;28;20024;-64
2021/06/11 01:57:30;;;;;;;13.30;8.35;;;;;;;16.13;74.73;100578.47;5066443;28;20017;-65
2021/06/11 01:59:57;;;;;;;11.38;8.10;;;;;;;16.10;74.85;100577.63;5065892;28;20104;-65
2021/06/11 02:02:23;;;;;;;11.43;7.93;;;;;;;16.08;75.25;100569.00;5065943;28;20040;-65
2021/06/11 02:04:49;;;;;;;12.75;8.65;;;;;;;16.07;75.39;100575.09;5065916;28;20047;-65
2021/06/11 02:07:15;;;;;;;14.32;8.85;;;;;;;16.06;75.70;100576.03;5065959;28;20067;-64
2021/06/11 02:09:42;;;;;;;12.10;8.45;;;;;;;15.97;75.81;100571.03;5047771;28;20028;-64
2021/06/11 02:12:09;;;;;;;13.60;8.95;;;;;;;15.96;75.79;100564.91;5065678;28;20025;-64
2021/06/11 02:14:35;;;;;;;13.80;8.52;;;;;;;15.99;75.86;100571.84;5065818;28;20085;-64
2021/06/11 02:17:01;;;;;;;12.27;8.77;;;;;;;15.97;75.91;100565.78;5065844;28;20032;-64
2021/06/11 02:19:27;;;;;;;12.43;9.48;;;;;;;15.92;76.19;100565.91;5065584;28;20044;-64
2021/06/11 02:21:54;;;;;;;19.10;9.40;;;;;;;15.88;76.21;100560.81;5064381;28;20051;-64
2021/06/11 02:24:20;;;;;;;11.35;9.50;;;;;;;15.88;76.43;100571.28;5065249;28;20021;-64
2021/06/11 02:26:48;;;;;;;16.27;10.43;;;;;;;15.85;76.53;100561.72;5065804;28;20039;-64
2021/06/11 02:29:13;;;;;;;13.38;9.82;;;;;;;15.80;76.62;100554.00;5065580;28;20055;-64
2021/06/11 02:31:39;;;;;;;15.27;10.55;;;;;;;15.82;76.63;100560.06;5065463;28;20020;-63
2021/06/11 02:34:07;;;;;;;16.92;10.00;;;;;;;15.82;76.67;100562.69;5065396;28;20021;-64
2021/06/11 02:36:33;;;;;;;15.80;10.65;;;;;;;15.82;76.86;100553.97;5063517;28;20102;-64
2021/06/11 02:38:58;;;;;;;11.35;9.55;;;;;;;15.81;77.10;100557.50;5063724;28;20028;-64
2021/06/11 02:41:28;;;;;;;14.38;10.05;;;;;;;15.77;77.30;100554.09;5065376;28;20021;-64
2021/06/11 02:43:54;;;;;;;12.93;9.20;;;;;;;15.78;77.40;100550.59;5047129;28;20501;-64
2021/06/11 02:46:32;;;;;;;12.35;10.07;;;;;;;15.78;77.68;100550.59;5064921;28;20025;-65
2021/06/11 02:49:34;;;;;;;15.45;11.10;;;;;;;15.83;77.79;100553.09;5047017;28;20017;-65
2021/06/11 02:52:02;;;;;;;16.85;11.15;;;;;;;15.82;77.60;100546.97;5064876;28;20068;-65
2021/06/11 02:54:32;;;;;;;14.73;10.00;;;;;;;15.89;77.79;100557.28;5064878;28;20033;-65
2021/06/11 02:57:12;;;;;;;18.17;10.63;;;;;;;15.91;77.91;100558.09;5064969;28;20096;-64
2021/06/11 02:59:45;;;;;;;12.90;10.88;;;;;;;15.94;77.93;100548.38;5065113;28;20481;-64
2021/06/11 03:02:14;;;;;;;13.63;11.35;;;;;;;15.97;77.80;100545.69;5064908;28;20024;-64
2021/06/11 03:04:45;;;;;;;16.27;11.05;;;;;;;16.06;77.72;100554.19;5064689;28;20040;-64
2021/06/11 03:07:21;;;;;;;14.40;10.57;;;;;;;16.22;77.75;100541.50;5064835;28;20515;-64
2021/06/11 03:09:48;;;;;;;11.63;8.82;;;;;;;16.43;77.94;100547.00;5064712;28;20024;-64
2021/06/11 03:12:15;;;;;;;17.02;9.23;;;;;;;16.65;77.78;100547.19;5064827;28;20021;-64
2021/06/11 03:14:41;;;;;;;18.00;9.43;;;;;;;16.98;76.81;100547.00;5064632;28;20017;-64
2021/06/11 03:17:09;;;;;;;13.15;9.00;;;;;;;17.31;76.24;100543.34;5064343;28;20059;-64
2021/06/11 03:19:37;;;;;;;11.77;8.38;;;;;;;17.82;75.15;100538.06;5064492;28;20028;-64
2021/06/11 03:22:08;;;;;;;15.15;9.65;;;;;;;18.38;73.30;100542.13;5064552;28;20119;-64
2021/06/11 03:24:40;;;;;;;14.27;9.88;;;;;;;18.83;71.01;100533.31;5064189;28;20032;-64
2021/06/11 03:27:08;;;;;;;12.10;9.05;;;;;;;19.34;69.90;100541.81;5063222;28;20141;-65
2021/06/11 03:29:41;;;;;;;16.02;9.98;;;;;;;19.88;67.69;100546.47;5064407;28;20056;-64
2021/06/11 03:32:16;;;;;;;11.80;8.55;;;;;;;20.39;66.15;100545.91;5064161;28;20032;-65
2021/06/11 03:34:44;;;;;;;12.10;9.57;;;;;;;20.96;64.19;100546.75;5064218;28;20077;-64
2021/06/11 03:37:16;;;;;;;12.45;9.35;;;;;;;21.41;63.25;100547.97;5064097;28;20021;-64
2021/06/11 03:39:48;;;;;;;14.25;9.60;;;;;;;21.86;61.21;100544.78;5064104;28;20029;-64
2021/06/11 03:42:13;;;;;;;15.73;9.60;;;;;;;22.17;59.07;100531.69;5046234;28;20111;-64
2021/06/11 03:44:45;;;;;;;13.05;9.30;;;;;;;22.60;58.39;100541.69;5063804;28;20177;-64
2021/06/11 03:47:12;;;;;;;;;;;;;;;23.03;55.34;100542.75;5063330;28;20032;-63
2021/06/11 03:49:40;;;;;;;11.27;8.82;;;;;;;23.31;55.71;100541.09;5063891;28;19913;-65
2021/06/11 03:52:07;;;;;;;12.40;9.50;;;;;;;23.56;54.15;100542.31;5045761;28;20041;-65
2021/06/11 03:54:34;;;;;;;13.98;9.88;;;;;;;23.88;52.50;100547.38;5062342;28;20025;-65
2021/06/11 03:57:02;;;;;;;11.23;8.80;;;;;;;24.06;52.68;100544.50;5063746;28;20018;-64
2021/06/11 03:59:30;;;;;;;15.80;9.50;;;;;;;24.32;51.33;100543.81;5062470;28;20032;-66
2021/06/11 04:01:56;;;;;;;14.32;8.95;;;;;;;24.69;50.29;100545.88;5062472;28;20059;-65
2021/06/11 04:04:22;;;;;;;9.98;8.52;;;;;;;24.90;49.37;100551.59;5063536;28;20453;-64
2021/06/11 04:07:37;;;;;;;12.50;8.32;;;;;;;25.04;48.47;100536.53;5063508;28;20029;-65
2021/06/11 04:10:13;;;;;;;9.52;7.75;;;;;;;25.36;48.53;100536.13;5058246;28;20044;-65
2021/06/11 04:12:52;;;;;;;10.60;8.13;;;;;;;25.74;46.96;100543.25;5063465;28;20021;-65
2021/06/11 04:15:18;;;;;;;13.55;8.18;;;;;;;25.99;46.52;100536.19;5063433;28;20051;-65
2021/06/11 04:17:47;;;;;;;10.90;8.05;;;;;;;26.16;45.55;100536.78;5063494;28;20568;-66
2021/06/11 04:20:20;;;;;;;11.60;6.80;;;;;;;26.65;45.64;100538.59;5063231;28;20264;-66
2021/06/11 04:22:49;;;;;;;15.40;7.97;;;;;;;27.26;44.06;100528.75;5061458;28;20025;-66
2021/06/11 04:25:16;;;;;;;7.78;6.65;;;;;;;27.47;43.10;100520.91;5063229;28;20040;-66
2021/06/11 04:27:44;;;;;;;10.98;7.25;;;;;;;27.68;41.77;100531.72;5063381;28;20045;-66
2021/06/11 04:30:13;;;;;;;8.52;6.78;;;;;;;27.73;41.72;100535.81;5063123;28;20093;-66
2021/06/11 04:32:38;;;;;;;8.57;6.88;;;;;;;27.63;40.90;100535.66;5062639;28;20045;-65
2021/06/11 04:35:04;;;;;;;10.90;6.32;;;;;;;27.09;41.86;100529.06;5063196;28;20285;-67
2021/06/11 04:37:30;;;;;;;9.25;6.05;;;;;;;26.61;42.89;100535.34;5063060;28;20021;-66
2021/06/11 04:39:55;;;;;;;8.95;5.80;;;;;;;26.37;44.12;100541.53;5061685;28;20046;-66
2021/06/11 04:42:21;;;;;;;9.13;6.32;;;;;;;26.61;43.67;100535.34;5063208;28;20032;-66
2021/06/11 04:44:46;;;;;;;6.65;5.97;;;;;;;26.58;43.27;100532.91;5063234;28;20156;-67
2021/06/11 04:47:12;;;;;;;10.70;5.45;;;;;;;26.31;43.32;100544.59;5063416;28;20640;-67
2021/06/11 04:49:37;;;;;;;8.48;6.28;;;;;;;25.70;43.92;100541.75;5063362;28;20036;-66
2021/06/11 04:52:03;;;;;;;10.15;6.15;;;;;;;24.95;45.56;100546.81;5062872;28;20048;-67
2021/06/11 04:54:29;;;;;;;10.30;5.65;;;;;;;24.18;47.51;100540.28;5044842;28;20021;-65
2021/06/11 04:57:00;;;;;;;8.18;5.10;;;;;;;23.64;48.81;100540.00;5061886;28;20055;-66
2021/06/11 04:59:25;;;;;;;7.88;5.55;;;;;;;23.37;49.92;100553.97;5066007;28;20021;-66
2021/06/11 05:01:50;;;;;;;10.63;5.22;;;;;;;23.10;50.29;100543.25;5067124;28;20029;-66
2021/06/11 05:04:16;;;;;;;9.75;5.43;;;;;;;22.90;51.29;100553.22;5067059;28;20040;-67
2021/06/11 05:06:41;;;;;;;8.02;5.40;;;;;;;22.64;52.09;100552.91;5067035;28;20039;-67
2021/06/11 05:09:07;;;;;;;12.38;5.90;;;;;;;22.41;52.86;100550.59;5066850;28;20025;-67
2021/06/11 05:11:32;;;;;;;7.60;5.05;;;;;;;22.24;52.97;100554.19;5067025;28;20088;-66
2021/06/11 05:13:57;;;;;;;8.40;5.35;;;;;;;22.08;53.44;100551.53;5067115;28;20143;-69
2021/06/11 05:16:23;;;;;;;6.88;5.43;;;;;;;21.93;54.11;100550.63;5065563;28;20119;-66
2021/06/11 05:18:48;;;;;;;7.97;5.38;;;;;;;21.78;54.65;100558.44;5067101;28;20051;-67
2021/06/11 05:21:13;;;;;;;8.85;5.65;;;;;;;21.61;55.15;100553.16;5066857;28;20429;-66
2021/06/11 05:23:39;;;;;;;11.43;4.97;;;;;;;21.49;55.75;100558.13;5066741;28;20025;-67
2021/06/11 05:26:05;;;;;;;5.53;4.70;;;;;;;21.48;55.88;100550.28;5066580;28;20035;-64
2021/06/11 05:28:30;;;;;;;8.00;4.95;;;;;;;21.43;56.22;100553.19;5066748;28;20048;-68
2021/06/11 05:30:56;;;;;;;7.63;5.03;;;;;;;21.38;56.74;100557.84;5066653;28;20494;-68
2021/06/11 05:33:22;;;;;;;5.47;4.97;;;;;;;21.47;57.03;100553.88;5065238;28;20025;-68
2021/06/11 05:35:48;;;;;;;7.82;5.10;;;;;;;21.64;56.99;100553.84;5066629;28;20071;-68
2021/06/11 05:38:15;;;;;;;5.40;4.25;;;;;;;21.96;55.52;100546.94;5066294;28;20040;-67
2021/06/11 05:40:41;;;;;;;5.72;3.72;;;;;;;21.91;55.42;100542.75;5066107;28;20060;-68
2021/06/11 05:43:07;;;;;;;6.35;4.18;;;;;;;21.85;55.53;100543.09;5066421;28;20029;-66
2021/06/11 05:45:32;;;;;;;5.15;4.45;;;;;;;21.80;55.26;100553.06;5065068;28;20023;-67
2021/06/11 05:48:00;;;;;;;6.20;4.68;;;;;;;21.60;55.64;100560.22;5066460;28;20472;-67
2021/06/11 05:50:27;;;;;;;6.65;3.78;;;;;;;21.45;56.21;100555.72;5066412;28;20032;-67
2021/06/11 05:52:53;;;;;;;5.90;4.20;;;;;;;21.32;56.23;100544.94;5066272;28;20045;-67
2021/06/11 05:55:19;;;;;;;5.15;4.53;;;;;;;21.29;56.77;100552.09;5066038;28;20025;-67
2021/06/11 05:57:44;;;;;;;5.85;4.80;;;;;;;21.22;57.16;100542.78;5066360;28;20035;-67
2021/06/11 06:00:10;;;;;;;6.63;5.07;;;;;;;21.17;57.16;100547.44;5066322;28;20028;-68
2021/06/11 06:02:35;;;;;;;8.80;4.78;;;;;;;21.18;56.99;100554.44;5064790;28;20020;-68
2021/06/11 06:05:01;;;;;;;7.28;5.18;;;;;;;21.14;57.47;100558.16;5048078;28;20025;-67
2021/06/11 06:07:26;;;;;;;6.40;5.07;;;;;;;21.09;57.39;100545.19;5047948;28;20028;-67
2021/06/11 06:09:52;;;;;;;8.68;4.93;;;;;;;21.09;57.58;100545.19;5063537;28;20093;-68
2021/06/11 06:12:17;;;;;;;6.68;4.22;;;;;;;21.15;57.19;100547.53;5065954;28;20021;-68
2021/06/11 06:14:42;;;;;;;5.57;4.03;;;;;;;21.24;57.11;100548.00;5065829;28;20025;-67
2021/06/11 06:17:08;;;;;;;8.02;5.70;;;;;;;21.31;56.98;100544.09;5065913;28;20025;-67
2021/06/11 06:19:33;;;;;;;6.85;4.25;;;;;;;21.34;56.54;100545.75;5065847;28;20025;-66
2021/06/11 06:21:59;;;;;;;5.25;4.30;;;;;;;21.30;56.93;100543.25;5065915;28;20106;-68
2021/06/11 06:24:24;;;;;;;5.85;4.80;;;;;;;21.37;56.98;100540.28;5065681;28;20032;-68
2021/06/11 06:26:50;;;;;;;5.30;4.20;;;;;;;21.39;56.92;100546.34;5065583;28;20128;-67
2021/06/11 06:29:15;;;;;;;5.75;4.70;;;;;;;21.46;57.09;100547.72;5065631;28;20080;-67
2021/06/11 06:31:41;;;;;;;9.15;5.00;;;;;;;21.50;56.88;100546.63;5065396;28;20029;-67
2021/06/11 06:34:06;;;;;;;6.45;4.05;;;;;;;21.47;56.88;100545.97;5065268;28;20035;-67
2021/06/11 06:36:32;;;;;;;8.23;4.47;;;;;;;21.52;56.55;100541.25;5047555;28;20032;-67
2021/06/11 06:39:01;;;;;;;9.07;5.55;;;;;;;21.51;56.54;100545.72;5065341;28;20127;-67
2021/06/11 06:41:26;;;;;;;11.65;5.95;;;;;;;21.53;56.42;100551.75;5065066;28;20029;-68
2021/06/11 06:43:51;;;;;;;9.27;5.65;;;;;;;21.41;56.74;100545.34;5065156;28;20032;-67
2021/06/11 06:46:21;;;;;;;7.30;5.50;;;;;;;21.35;57.30;100542.16;5063663;28;20028;-67
2021/06/11 06:48:51;;;;;;;6.82;5.07;;;;;;;21.40;57.49;100546.28;5065047;28;20032;-67
2021/06/11 06:51:18;;;;;;;11.20;6.03;;;;;;;21.53;57.28;100538.53;5065166;28;20569;-67
2021/06/11 06:53:44;;;;;;;9.13;6.45;;;;;;;21.66;57.01;100545.84;5064887;28;20037;-68
2021/06/11 06:56:09;;;;;;;6.35;5.40;;;;;;;21.73;57.22;100547.22;5064837;28;20052;-67
2021/06/11 06:58:36;;;;;;;7.82;6.10;;;;;;;21.92;56.78;100549.75;5065000;28;20190;-67
2021/06/11 07:01:02;;;;;;;9.23;5.55;;;;;;;22.15;56.58;100550.28;5064919;28;20021;-67
2021/06/11 07:03:27;;;;;;;12.90;6.13;;;;;;;22.41;55.89;100549.78;5064802;28;20059;-66
2021/06/11 07:05:52;;;;;;;8.20;5.53;;;;;;;22.51;55.13;100545.66;5065031;28;20021;-66
2021/06/11 07:08:18;;;;;;;7.03;5.45;;;;;;;22.50;54.38;100551.03;5064768;28;20131;-67
2021/06/11 07:10:43;;;;;;;7.10;4.70;;;;;;;22.46;54.53;100550.34;5063229;28;20385;-66
2021/06/11 07:13:12;;;;;;;8.80;5.78;;;;;;;22.40;54.49;100543.63;5064659;28;20017;-66
2021/06/11 07:15:38;;;;;;;7.43;5.18;;;;;;;22.25;55.19;100550.59;5064564;28;20415;-67
2021/06/11 07:18:04;;;;;;;9.23;5.25;;;;;;;22.19;55.16;100531.59;5064687;28;20031;-67
2021/06/11 07:20:30;;;;;;;9.65;4.55;;;;;;;22.22;55.37;100549.94;5046759;28;20016;-67
2021/06/11 07:22:55;;;;;;;7.25;5.15;;;;;;;22.33;55.38;100544.91;5064314;28;20402;-67
2021/06/11 07:25:21;;;;;;;6.32;4.40;;;;;;;22.46;54.84;100554.81;5062900;28;20103;-67
2021/06/11 07:27:46;;;;;;;5.78;4.53;;;;;;;22.36;54.50;100549.16;5064461;28;20554;-67
2021/06/11 07:30:12;;;;;;;7.97;5.18;;;;;;;22.23;54.39;100552.50;5064356;28;20025;-67
2021/06/11 07:32:40;;;;;;;4.88;4.15;;;;;;;22.16;55.18;100557.28;5064364;28;20033;-67
2021/06/11 07:35:06;;;;;;;11.05;5.35;;;;;;;22.23;55.47;100555.16;5062937;28;20086;-67
2021/06/11 07:37:31;;;;;;;6.10;5.43;;;;;;;22.38;55.10;100553.41;5064237;28;20116;-67
2021/06/11 07:39:57;;;;;;;7.88;6.20;;;;;;;22.27;54.83;100546.09;5064066;28;20342;-67
2021/06/11 07:42:23;;;;;;;9.98;6.82;;;;;;;22.23;55.13;100555.16;5064198;28;20028;-67
2021/06/11 07:44:49;;;;;;;13.55;6.55;;;;;;;22.20;55.35;100552.69;5062604;28;20048;-67
2021/06/11 07:47:14;;;;;;;13.77;10.77;;;;;;;22.11;55.42;100551.38;5064289;28;20032;-67
2021/06/11 07:49:41;;;;;;;12.65;10.15;;;;;;;21.96;56.28;100545.16;5062918;28;20020;-67
2021/06/11 07:52:07;;;;;;;15.95;11.35;;;;;;;21.92;56.37;100548.88;5063949;28;20051;-68
2021/06/11 07:54:33;;;;;;;15.52;11.75;;;;;;;21.86;57.01;100546.56;5064140;28;20025;-67
2021/06/11 07:56:58;;;;;;;16.13;11.40;;;;;;;21.95;56.14;100540.78;5063946;28;20060;-67
2021/06/11 07:59:24;;;;;;;15.20;13.30;;;;;;;21.94;55.85;100536.44;5063941;28;20055;-68
2021/06/11 08:01:49;;;;;;;23.58;16.33;;;;;;;21.76;56.35;100544.41;5063854;28;20024;-68
2021/06/11 08:04:15;;;;;;;27.17;17.15;;;;;;;21.50;57.29;100549.28;5063633;28;20491;-68
2021/06/11 08:06:40;;;;;;;19.40;14.25;;;;;;;21.37;57.97;100541.16;5063884;28;20029;-68
2021/06/11 08:09:06;;;;;;;20.20;15.07;;;;;;;21.53;57.02;100553.56;5063790;28;20037;-69
2021/06/11 08:11:31;;;;;;;20.50;14.93;;;;;;;21.62;56.06;100550.44;5045688;28;20021;-69
2021/06/11 08:13:57;;;;;;;22.52;14.48;;;;;;;21.84;56.10;100540.53;5063864;28;20500;-68
2021/06/11 08:16:24;;;;;;;22.45;15.90;;;;;;;22.25;54.80;100529.44;5063632;28;20033;-66
2021/06/11 08:18:50;;;;;;;23.35;16.50;;;;;;;22.45;53.49;100546.00;5064011;28;20032;-68
2021/06/11 08:21:16;;;;;;;20.63;13.90;;;;;;;22.32;53.68;100545.84;5045645;28;20021;-67
2021/06/11 08:23:41;;;;;;;19.00;13.98;;;;;;;22.10;54.31;100535.59;5045648;28;20028;-67
2021/06/11 08:26:07;;;;;;;19.38;15.45;;;;;;;22.04;54.91;100542.91;5063419;28;20021;-69
2021/06/11 08:28:32;;;;;;;23.70;16.42;;;;;;;22.00;54.74;100544.03;5063420;28;20035;-68
2021/06/11 08:30:58;;;;;;;27.98;20.10;;;;;;;22.02;55.28;100543.97;5063408;28;20033;-67
2021/06/11 08:33:23;;;;;;;22.48;18.70;;;;;;;21.97;55.16;100543.34;5062957;28;20035;-68
2021/06/11 08:35:48;;;;;;;28.20;20.55;;;;;;;21.88;55.49;100548.22;5063506;28;20032;-68
2021/06/11 08:38:14;;;;;;;28.33;18.98;;;;;;;21.81;55.63;100540.69;5062163;28;20108;-68
2021/06/11 08:40:40;;;;;;;34.92;23.02;;;;;;;21.78;55.66;100542.56;5063176;28;20032;-68
2021/06/11 08:43:06;;;;;;;32.78;25.38;;;;;;;21.69;55.93;100550.09;5045404;28;20021;-68
2021/06/11 08:45:32;;;;;;;34.50;24.70;;;;;;;21.65;56.22;100552.03;5063020;28;20117;-68
2021/06/11 08:47:58;;;;;;;36.83;25.05;;;;;;;21.64;56.16;100545.06;5062009;28;20020;-68
2021/06/11 08:50:27;;;;;;;37.50;24.65;;;;;;;21.41;56.62;100555.03;5062931;28;20021;-67
2021/06/11 08:52:54;;;;;;;36.28;25.40;;;;;;;21.16;56.86;100545.75;5062811;28;20033;-67
2021/06/11 08:55:20;;;;;;;33.67;24.65;;;;;;;20.93;57.86;100542.47;5062694;28;20020;-68
2021/06/11 08:57:46;;;;;;;40.33;24.23;;;;;;;20.87;57.84;100553.31;5062847;28;20032;-67
2021/06/11 09:00:12;;;;;;;33.80;23.80;;;;;;;20.62;58.18;100547.47;5063107;28;20029;-67
2021/06/11 09:03:19;;;;;;;34.60;23.60;;;;;;;20.33;59.29;100543.59;5063018;28;20092;-67
2021/06/11 09:05:46;;;;;;;37.00;25.23;;;;;;;20.13;59.83;100548.84;5063247;28;20080;-68
2021/06/11 09:08:13;;;;;;;43.53;28.10;;;;;;;19.94;60.49;100548.81;5063166;28;20048;-67
2021/06/11 09:10:39;;;;;;;40.33;26.52;;;;;;;19.70;61.12;100538.47;5062871;28;20020;-67
2021/06/11 09:13:04;;;;;;;42.15;28.15;;;;;;;19.54;61.76;100549.69;5044971;28;20013;-67
2021/06/11 09:15:30;;;;;;;51.35;33.58;;;;;;;19.48;61.98;100560.50;5063039;28;20460;-66
2021/06/11 09:17:56;;;;;;;50.85;33.22;;;;;;;19.32;62.63;100557.66;5044965;28;20021;-67
2021/06/11 09:20:41;;;;;;;44.70;29.42;;;;;;;19.16;63.04;100563.59;5062902;28;20032;-67
2021/06/11 09:23:08;;;;;;;44.05;29.88;;;;;;;19.06;63.47;100564.84;5062927;28;20025;-67
2021/06/11 09:25:38;;;;;;;43.28;29.48;;;;;;;18.94;63.62;100561.84;5062805;28;20029;-67
2021/06/11 09:28:15;;;;;;;43.45;29.35;;;;;;;18.81;63.93;100563.22;5061601;28;20330;-67
2021/06/11 09:30:40;;;;;;;42.17;28.15;;;;;;;18.67;64.46;100558.53;5063011;28;20047;-66
2021/06/11 09:33:15;;;;;;;39.25;24.35;;;;;;;18.63;64.76;100552.53;5061733;28;20029;-68
2021/06/11 09:35:46;;;;;;;38.88;25.83;;;;;;;18.64;64.88;100550.78;5062992;28;20021;-67
2021/06/11 09:38:16;;;;;;;34.28;22.50;;;;;;;18.82;64.92;100531.59;5062911;28;20100;-67
2021/06/11 09:40:44;;;;;;;28.58;19.27;;;;;;;19.35;64.45;100532.97;5044878;28;20025;-67
2021/06/11 09:43:10;;;;;;;29.25;18.73;;;;;;;19.89;62.21;100542.94;5061405;28;20052;-66
2021/06/11 09:45:36;;;;;;;28.73;17.95;;;;;;;20.15;61.37;100548.78;5047581;28;20021;-67
2021/06/11 09:48:01;;;;;;;25.23;17.20;;;;;;;20.21;60.81;100547.66;5066516;28;20484;-67
2021/06/11 09:50:38;;;;;;;28.20;17.27;;;;;;;20.19;60.47;100550.38;5066389;28;20037;-67
2021/06/11 09:53:11;;;;;;;25.50;16.88;;;;;;;20.11;60.16;100549.88;5066163;28;20402;-67
2021/06/11 09:55:54;;;;;;;26.95;17.77;;;;;;;20.05;60.09;100551.84;5048142;28;20580;-67
2021/06/11 09:58:27;;;;;;;25.70;17.33;;;;;;;19.96;60.35;100543.47;5066160;28;20325;-67
2021/06/11 10:00:58;;;;;;;23.73;17.50;;;;;;;19.97;60.24;100539.94;5066067;28;20017;-66
2021/06/11 10:03:29;;;;;;;26.85;17.35;;;;;;;19.96;60.28;100539.06;5048046;28;20025;-67
2021/06/11 10:05:56;;;;;;;28.20;17.73;;;;;;;19.95;60.18;100537.38;5066028;28;20032;-67
2021/06/11 10:08:22;;;;;;;26.23;17.48;;;;;;;19.96;60.27;100527.66;5066180;28;20044;-66
2021/06/11 10:10:50;;;;;;;23.02;16.88;;;;;;;19.98;60.54;100516.16;5047827;28;20028;-68
2021/06/11 10:13:17;;;;;;;26.23;18.13;;;;;;;20.08;59.80;100528.94;5065949;28;20020;-66
2021/06/11 10:15:44;;;;;;;27.25;17.48;;;;;;;20.05;59.93;100535.19;5065873;28;20021;-68
2021/06/11 10:18:10;;;;;;;24.58;17.08;;;;;;;19.97;60.06;100529.41;5066012;28;20318;-68
2021/06/11 10:20:37;;;;;;;24.33;16.00;;;;;;;20.02;60.39;100536.19;5065795;28;20032;-67
2021/06/11 10:23:05;;;;;;;21.40;14.98;;;;;;;20.11;59.51;100536.69;5047731;28;20028;-67
2021/06/11 10:25:31;;;;;;;23.33;15.27;;;;;;;20.06;59.51;100540.38;5065469;28;20016;-68
2021/06/11 10:27:57;;;;;;;24.25;14.90;;;;;;;19.94;59.63;100536.50;5065727;28;20032;-68
2021/06/11 10:30:26;;;;;;;21.13;14.15;;;;;;;19.86;60.23;100527.22;5064391;28;20048;-68
2021/06/11 10:32:52;;;;;;;27.23;15.57;;;;;;;19.86;60.28;100522.84;5047983;28;20051;-67
2021/06/11 10:35:47;;;;;;;22.88;16.33;;;;;;;19.78;60.48;100519.69;5065570;28;20028;-68
2021/06/11 10:38:32;;;;;;;24.77;14.25;;;;;;;19.74;60.92;100524.25;5065801;28;20535;-68
2021/06/11 10:41:00;;;;;;;25.92;17.00;;;;;;;19.68;61.04;100524.53;5047353;28;20032;-68
2021/06/11 10:43:38;;;;;;;25.45;17.02;;;;;;;19.59;61.44;100524.91;5065385;28;20114;-68
2021/06/11 10:46:43;;;;;;;25.73;17.17;;;;;;;19.48;61.54;100528.03;5047540;28;20047;-68
2021/06/11 10:49:09;;;;;;;30.00;19.08;;;;;;;19.28;61.80;100527.97;5062407;28;20068;-68
2021/06/11 10:51:36;;;;;;;28.85;17.90;;;;;;;19.19;62.05;100521.34;5063998;28;20024;-68
2021/06/11 10:54:17;;;;;;;31.58;19.25;;;;;;;19.05;62.77;100519.28;5047128;28;20041;-70
2021/06/11 10:56:57;;;;;;;27.88;17.63;;;;;;;18.94;63.41;100519.75;5063240;28;20021;-68
2021/06/11 10:59:40;;;;;;;29.42;18.75;;;;;;;18.74;63.76;100515.28;5064954;28;20027;-68
2021/06/11 11:02:07;;;;;;;32.03;21.17;;;;;;;18.70;64.10;100524.22;5065212;28;20028;-67
2021/06/11 11:04:35;;;;;;;30.35;19.08;;;;;;;18.61;64.96;100527.25;5046897;28;20060;-68
2021/06/11 11:07:32;;;;;;;32.58;21.90;;;;;;;18.41;65.57;100531.50;5064964;28;20051;-66
2021/06/11 11:10:05;;;;;;;32.28;21.85;;;;;;;18.26;65.79;100525.94;5063587;28;20056;-70
2021/06/11 11:13:04;;;;;;;36.65;21.65;;;;;;;18.23;65.89;100526.06;5064886;28;20032;-66
2021/06/11 11:15:38;;;;;;;35.95;23.30;;;;;;;18.16;65.93;100516.72;5064944;28;20052;-67
2021/06/11 11:18:06;;;;;;;32.75;21.30;;;;;;;18.04;66.44;100505.72;5064761;28;20025;-66
2021/06/11 11:20:36;;;;;;;39.50;24.17;;;;;;;17.98;66.84;100507.72;5064892;28;20082;-68